KTCM/TCM METAR and TAF weather

Enter ICAO airport designator
Station Type Date Time Source
KTCM METAR 2020/01/22 14:56 UTC NOAA

KTCM 221456Z AUTO 18006KT 10SM -RA OVC044 06/06 A3002 RMK AO2 RAB04 SLP171 P0001 60001 T00570057 50003 $


Station Type Date Time Source
KTCM Decoded METAR 2020/01/22 14:56 UTC NOAA

Tacoma / McChord Air Force Base, WA, United States (KTCM) 47-09N 122-29W 87M
Jan 22, 2020 - 09:56 AM EST / 2020.01.22 1456 UTC
Wind: from the S (180 degrees) at 7 MPH (6 KT):0
Visibility: 10 mile(s):0
Sky conditions: overcast
Weather: light rain
Precipitation last hour: 0.01 inches
Temperature: 42.3 F (5.7 C)
Dew Point: 42.3 F (5.7 C)
Relative Humidity: 100%
Pressure (altimeter): 30.02 in. Hg (1016 hPa)
Pressure tendency: 0.01 inches (0.3 hPa) higher than three hours ago
ob: KTCM 221456Z AUTO 18006KT 10SM -RA OVC044 06/06 A3002 RMK AO2 RAB04 SLP171 P0001 60001 T00570057 50003
cycle: 15

Station Type Date Time Source
KTCM TAF 2020/01/22 13:07 UTC NOAA

TAF KTCM 221300Z 2213/2319 16009KT 9000 -SHRA OVC030 610309 QNH2999INS
BECMG 2214/2215 19012KT 8000 -RA OVC020 620409 QNH2997INS
BECMG 2219/2220 21012G18KT 9000 -SHRA OVC030 610509 510209 QNH2997INS
TEMPO 2220/2303 19015G25KT
BECMG 2303/2304 18012G18KT 9000 -SHRA OVC030 610609 510209 QNH3001INS TX10/2223Z TN06/2313Z

Example: see airport list